Latest Weather Observations for Moorabbin Airport

IDV60801

Issued at 3:35 pm EDT Wednesday 22 October 2014 (issued every 30 minutes, with the page automatically refreshed every 10 minutes)

About weather observations | Map of weather stations | Latest weather observations for VIC | Other Formats
Station Details ID: 086077 Name: MOORABBIN AIRPORT Lat: -37.98 Lon: 145.10 Height: 12.1 m
Data from the previous 72 hours. | See also: Recent months at Moorabbin Airport
Date/Time
EDT
Temp
°C
App
Temp
°C
Dew
Point
Rel
Hum
%
Delta-T
°C
Wind Press
QNH
hPa
Press
MSL
hPa
Rain
since 9 am
mm
Dir
 
Spd
km/h
Gust
km/h
Spd
kts
Gust
kts
22/03:30pm 32.9 29.0 7.0 20 14.1 N 17 26 9 14 1014.7 1014.7 0.0
22/03:00pm 33.1 29.1 9.2 23 13.5 NNE 20 26 11 14 1015.1 1015.1 0.0
22/02:30pm 30.9 28.1 11.3 30 11.4 N 17 30 9 16 1015.6 1015.6 0.0
22/02:00pm 31.4 27.9 12.2 30 11.3 N 22 30 12 16 1016.0 1016.0 0.0
22/01:30pm 30.7 27.6 11.6 31 11.1 N 19 28 10 15 1016.4 1016.4 0.0
22/01:00pm 29.8 26.2 11.8 33 10.5 N 22 32 12 17 1016.7 1016.7 0.0
22/12:30pm 29.5 25.3 11.1 32 10.6 N 24 33 13 18 1017.1 1017.1 0.0
22/12:00pm 28.5 23.0 10.7 33 10.1 N 30 41 16 22 1017.4 1017.4 0.0
22/11:30am 27.2 22.6 12.4 40 8.6 N 28 35 15 19 1018.1 1018.1 0.0
22/11:00am 26.8 21.5 12.4 40 8.3 N 32 39 17 21 1018.6 1018.6 0.0
22/10:30am 25.7 20.1 12.2 43 7.8 N 33 41 18 22 1018.5 1018.5 0.0
22/10:00am 24.6 19.9 11.9 45 7.2 N 28 41 15 22 1018.7 1018.7 0.0
22/09:30am 23.5 18.7 11.5 47 6.7 N 28 39 15 21 1018.8 1018.8 0.0
22/09:00am 22.2 18.5 11.6 51 5.9 N 22 33 12 18 1018.9 1018.9 0.0
22/08:30am 20.5 17.1 11.4 56 5.0 N 20 30 11 16 1019.0 1019.0 0.0
22/08:00am 18.7 15.8 11.0 61 4.2 N 17 24 9 13 1019.2 1019.2 0.0
22/07:30am 15.4 13.7 12.3 82 1.7 N 13 15 7 8 1019.3 1019.3 0.0
22/07:00am 10.7 10.6 9.5 92 0.6 CALM 0 0 0 0 1019.5 1019.5 0.0
22/06:30am 10.5 10.4 9.4 93 0.5 CALM 0 0 0 0 1019.5 1019.5 0.0
22/06:00am 10.3 10.1 9.1 92 0.6 S 0 0 0 0 1019.5 1019.5 0.0
22/05:30am 10.7 10.6 9.5 92 0.6 CALM 0 0 0 0 1019.3 1019.3 0.0
22/05:00am 10.7 10.5 9.1 90 0.8 CALM 0 0 0 0 1019.3 1019.3 0.0
22/04:30am 11.0 10.9 9.3 89 0.8 CALM 0 0 0 0 1019.3 1019.3 0.0
22/04:00am 11.6 10.4 9.5 87 1.1 E 6 7 3 4 1019.6 1019.6 0.0
22/03:30am 11.4 10.9 9.5 88 1.0 S 2 6 1 3 1020.0 1020.0 0.0
22/03:00am 11.8 10.6 9.7 87 1.1 SW 6 6 3 3 1020.3 1020.3 0.0
22/02:30am 12.1 11.7 9.8 86 1.2 SE 2 6 1 3 1020.4 1020.4 0.0
22/02:00am 12.1 10.7 9.7 85 1.2 SE 7 9 4 5 1020.7 1020.7 0.0
22/01:30am 12.4 11.1 9.8 84 1.3 SE 7 9 4 5 1021.0 1021.0 0.0
22/01:00am 12.7 11.3 9.5 81 1.6 ESE 7 9 4 5 1021.3 1021.3 0.0
22/12:30am 13.1 11.3 9.5 79 1.8 ESE 9 9 5 5 1021.7 1021.7 0.0
22/12:00am 13.9 12.6 9.9 77 2.1 ESE 7 9 4 5 1022.2 1022.2 0.0
 
Date/Time
EDT
Temp
°C
App
Temp
°C
Dew
Point
Rel
Hum
%
Delta-T
°C
Wind Press
QNH
hPa
Press
MSL
hPa
Rain
since 9 am
mm
Dir
 
Spd
km/h
Gust
km/h
Spd
kts
Gust
kts
21/11:30pm 14.9 14.3 10.3 74 2.4 ESE 4 6 2 3 1022.5 1022.5 0.0
21/11:00pm 15.6 13.7 10.6 72 2.6 ESE 11 15 6 8 1022.6 1022.6 0.0
21/10:30pm 16.1 14.3 10.8 71 2.8 ESE 11 13 6 7 1022.8 1022.8 0.0
21/10:00pm 16.9 14.8 11.0 68 3.2 ESE 13 15 7 8 1022.9 1022.9 0.0
21/09:30pm 18.1 16.0 11.2 64 3.7 ESE 13 17 7 9 1022.8 1022.8 0.0
21/09:00pm 18.9 16.1 11.5 62 4.0 ESE 17 28 9 15 1022.5 1022.5 0.0
21/08:30pm 19.8 16.5 11.6 59 4.5 ESE 20 28 11 15 1022.4 1022.4 0.0
21/08:00pm 20.6 17.3 11.5 56 5.0 ESE 20 26 11 14 1022.4 1022.4 0.0
21/07:30pm 21.6 17.8 11.3 52 5.7 ESE 22 28 12 15 1022.2 1022.2 0.0
21/07:00pm 22.7 19.5 11.1 48 6.4 ESE 19 28 10 15 1022.2 1022.2 0.0
21/06:30pm 23.6 19.9 11.6 47 6.8 SE 22 30 12 16 1022.1 1022.1 0.0
21/06:00pm 24.3 20.0 11.9 45 7.0 SE 26 33 14 18 1022.1 1022.1 0.0
21/05:30pm 24.6 20.3 11.9 45 7.2 SE 26 35 14 19 1022.1 1022.1 0.0
21/05:00pm 24.8 20.0 11.7 44 7.4 SE 28 37 15 20 1022.2 1022.2 0.0
21/04:30pm 25.1 20.0 12.0 44 7.5 ESE 30 35 16 19 1022.3 1022.3 0.0
21/04:00pm 24.9 20.4 12.5 46 7.1 ESE 28 35 15 19 1022.8 1022.8 0.0
21/03:30pm 24.7 20.2 12.6 47 7.0 SSE 28 35 15 19 1023.1 1023.1 0.0
21/03:00pm 25.5 21.5 13.0 46 7.2 SE 26 35 14 19 1023.5 1023.5 0.0
21/02:30pm 25.3 21.7 12.9 46 7.2 SSE 24 37 13 20 1024.0 1024.0 0.0
21/02:00pm 25.3 21.7 13.2 47 7.0 SSE 24 33 13 18 1024.5 1024.5 0.0
21/01:30pm 25.0 22.4 11.9 44 7.5 SE 17 24 9 13 1025.0 1025.0 0.0
21/01:00pm 23.8 21.0 10.1 42 7.5 ESE 15 20 8 11 1025.5 1025.5 0.0
21/12:30pm 22.7 20.3 10.2 45 6.8 ESE 13 20 7 11 1025.7 1025.7 0.0
21/12:00pm 22.3 20.9 10.8 48 6.3 N 9 19 5 10 1026.2 1026.2 0.0
21/11:30am 20.3 18.1 9.2 49 5.9 E 11 20 6 11 1026.6 1026.6 0.0
21/11:00am 19.0 16.9 8.4 50 5.5 E 9 19 5 10 1027.1 1027.1 0.0
21/10:30am 18.0 15.9 8.3 53 5.0 SE 9 19 5 10 1027.2 1027.2 0.0
21/10:00am 16.5 13.9 7.7 56 4.4 ESE 11 13 6 7 1027.6 1027.6 0.0
21/09:30am 15.3 13.1 7.8 61 3.7 ESE 9 13 5 7 1027.6 1027.6 0.0
21/09:00am 14.0 11.8 7.8 66 3.0 E 9 13 5 7 1027.7 1027.7 0.0
21/08:30am 12.5 10.3 7.8 73 2.3 E 9 13 5 7 1027.6 1027.6 0.0
21/08:00am 10.7 8.3 7.0 78 1.7 NE 9 11 5 6 1027.3 1027.3 0.0
21/07:30am 9.1 7.1 7.2 88 0.9 NNE 7 11 4 6 1027.1 1027.1 0.0
21/07:00am 7.3 5.2 5.9 91 0.6 NE 6 7 3 4 1026.9 1026.9 0.0
21/06:30am 6.6 4.4 5.2 91 0.6 NNE 6 7 3 4 1026.6 1026.6 0.0
21/06:00am 5.9 3.5 4.4 90 0.6 E 6 7 3 4 1026.3 1026.3 0.0
21/05:30am 6.9 4.7 5.5 91 0.6 N 6 7 3 4 1026.2 1026.2 0.0
21/05:00am 6.2 3.8 4.5 89 0.7 N 6 7 3 4 1026.2 1026.2 0.0
21/04:30am 7.3 5.0 5.9 91 0.6 NNE 7 9 4 5 1026.3 1026.3 0.0
21/04:00am 8.0 6.3 5.8 86 1.0 E 4 6 2 3 1026.1 1026.1 0.0
21/03:30am 7.9 6.1 5.5 85 1.1 SE 4 7 2 4 1026.3 1026.3 0.0
21/03:00am 8.1 5.4 5.4 83 1.2 SE 9 11 5 6 1026.4 1026.4 0.0
21/02:30am 8.8 6.1 5.5 80 1.5 ESE 9 11 5 6 1026.5 1026.5 0.0
21/02:00am 9.5 6.1 6.0 79 1.6 ESE 13 19 7 10 1026.7 1026.7 0.0
21/01:30am 10.2 6.5 6.2 76 1.9 ESE 15 22 8 12 1026.9 1026.9 0.0
21/01:00am 10.7 6.1 6.5 75 2.0 ESE 20 28 11 15 1027.1 1027.1 0.0
21/12:30am 10.9 5.9 6.5 74 2.1 ESE 22 26 12 14 1027.2 1027.2 0.0
21/12:00am 10.9 5.9 6.5 74 2.1 ESE 22 30 12 16 1027.4 1027.4 0.0
 
Date/Time
EDT
Temp
°C
App
Temp
°C
Dew
Point
Rel
Hum
%
Delta-T
°C
Wind Press
QNH
hPa
Press
MSL
hPa
Rain
since 9 am
mm
Dir
 
Spd
km/h
Gust
km/h
Spd
kts
Gust
kts
20/11:30pm 11.3 6.3 6.4 72 2.3 ESE 22 33 12 18 1027.6 1027.6 0.0
20/11:00pm 11.5 5.7 6.4 71 2.4 SE 26 35 14 19 1027.5 1027.5 0.0
20/10:30pm 12.1 6.0 6.8 70 2.5 ESE 28 37 15 20 1027.6 1027.6 0.0
20/10:00pm 12.3 6.2 6.8 69 2.6 ESE 28 43 15 23 1027.6 1027.6 0.0
20/09:30pm 12.4 6.3 6.7 68 2.7 SE 28 39 15 21 1027.7 1027.7 0.0
20/09:00pm 12.8 6.7 6.6 66 2.9 ESE 28 43 15 23 1027.6 1027.6 0.0
20/08:30pm 13.5 6.6 6.6 63 3.3 SE 32 43 17 23 1027.3 1027.3 0.0
20/08:21pm 14.0 7.2 6.8 62 3.5 SE 32 50 17 27 1027.3 1027.3 0.0
20/08:00pm 14.5 7.2 7.1 61 3.6 ESE 35 44 19 24 1027.2 1027.2 0.0
20/07:30pm 15.2 7.9 7.2 59 3.9 SE 35 50 19 27 1026.9 1026.9 0.0
20/07:00pm 16.5 9.6 7.2 54 4.6 SE 33 44 18 24 1026.7 1026.7 0.0
20/06:30pm 17.6 10.0 7.4 51 5.1 ESE 37 56 20 30 1026.8 1026.8 0.0
20/06:28pm 17.8 10.6 7.5 51 5.2 ESE 35 56 19 30 1026.7 1026.7 0.0
20/06:00pm 18.8 12.0 6.9 46 5.9 SE 32 43 17 23 1026.8 1026.8 0.0
20/05:30pm 19.0 11.8 6.1 43 6.4 SE 33 43 18 23 1026.9 1026.9 0.0
20/05:00pm 19.4 12.4 6.8 44 6.3 ESE 33 41 18 22 1026.9 1026.9 0.0
20/04:30pm 19.6 12.5 6.3 42 6.6 SE 33 46 18 25 1027.0 1027.0 0.0
20/04:00pm 19.4 12.4 6.8 44 6.3 SE 33 48 18 26 1027.1 1027.1 0.0
20/03:30pm 19.8 12.1 5.5 39 7.0 SE 35 46 19 25 1027.4 1027.4 0.0
20/03:00pm 19.4 12.2 5.1 39 6.9 SE 32 43 17 23 1027.7 1027.7 0.0
20/02:30pm 19.3 11.8 4.6 38 7.1 SE 33 43 18 23 1027.9 1027.9 0.0
20/02:00pm 18.9 10.9 3.9 37 7.1 SE 35 48 19 26 1028.3 1028.3 0.0
20/01:30pm 19.5 12.7 5.2 39 7.0 SSE 30 39 16 21 1028.5 1028.5 0.0
20/01:00pm 18.0 10.7 5.6 44 6.0 ESE 33 57 18 31 1028.6 1028.6 0.0
20/12:51pm 18.3 11.1 4.8 41 6.5 ESE 32 57 17 31 1028.8 1028.8 0.0
20/12:30pm 18.1 11.0 5.7 44 6.0 ESE 32 43 17 23 1029.2 1029.2 0.0
20/12:17pm 17.1 10.5 4.1 42 6.1 SE 28 46 15 25 1029.4 1029.4 0.0
20/12:00pm 17.4 10.8 4.4 42 6.1 SE 28 43 15 23 1029.6 1029.6 0.0
20/11:30am 16.4 9.1 4.4 45 5.6 SE 32 46 17 25 1030.1 1030.0 0.0
20/11:00am 14.9 7.4 3.7 47 5.1 SE 32 41 17 22 1030.4 1030.3 0.0
20/10:30am 14.8 8.1 3.6 47 5.1 ESE 28 39 15 21 1030.3 1030.2 0.0
20/10:00am 14.2 7.1 3.7 49 4.7 SE 30 39 16 21 1030.7 1030.6 0.0
20/09:30am 13.4 6.1 2.3 47 4.9 SE 30 39 16 21 1030.8 1030.7 0.0
20/09:00am 12.9 6.3 4.1 55 4.0 ESE 28 35 15 19 1030.7 1030.6 0.0
20/08:30am 11.4 5.6 4.2 61 3.2 SE 24 33 13 18 1030.6 1030.5 0.0
20/08:00am 10.3 5.4 4.2 66 2.7 SE 19 26 10 14 1030.5 1030.4 0.0
20/07:30am 9.5 5.1 4.7 72 2.1 SE 17 22 9 12 1030.2 1030.1 0.0
20/07:00am 8.4 4.4 4.8 78 1.6 SE 15 20 8 11 1030.1 1030.0 0.0
20/06:30am 8.2 4.2 5.1 81 1.4 SE 15 20 8 11 1030.0 1029.9 0.0
20/06:00am 8.6 4.4 5.5 81 1.4 SE 17 20 9 11 1029.6 1029.6 0.0
20/05:30am 9.2 5.0 5.9 80 1.5 SE 17 22 9 12 1029.6 1029.6 0.0
20/05:00am 9.4 5.2 5.8 78 1.6 SE 17 22 9 12 1029.2 1029.2 0.0
20/04:30am 9.9 5.8 6.2 78 1.7 SE 17 20 9 11 1029.0 1029.0 0.0
20/04:00am 10.6 6.2 6.6 76 1.9 SE 19 24 10 13 1029.2 1029.2 0.0
20/03:30am 11.0 6.7 6.9 76 1.9 SE 19 26 10 14 1029.0 1029.0 0.0
20/03:00am 12.0 6.5 7.7 75 2.1 SE 26 33 14 18 1029.0 1029.0 0.0
20/02:30am 11.7 8.6 8.9 83 1.4 SE 15 20 8 11 1029.2 1029.2 0.0
20/02:00am 11.5 7.1 9.1 85 1.2 SE 22 30 12 16 1029.2 1029.2 0.0
20/01:30am 12.5 7.8 7.8 73 2.3 SSE 22 32 12 17 1029.0 1029.0 0.0
20/01:00am 12.5 8.4 7.8 73 2.3 SSE 19 26 10 14 1029.2 1029.2 0.0
20/12:30am 12.1 8.9 8.6 79 1.7 SSE 15 20 8 11 1029.3 1029.3 0.0
20/12:00am 12.2 7.8 9.0 81 1.6 SSE 22 32 12 17 1029.1 1029.1 0.0
 
Date/Time
EDT
Temp
°C
App
Temp
°C
Dew
Point
Rel
Hum
%
Delta-T
°C
Wind Press
QNH
hPa
Press
MSL
hPa
Rain
since 9 am
mm
Dir
 
Spd
km/h
Gust
km/h
Spd
kts
Gust
kts
19/11:30pm 12.5 8.7 9.1 80 1.7 S 19 28 10 15 1028.8 1028.8 0.0
19/11:11pm 12.7 8.0 9.3 80 1.7 S 24 32 13 17 1028.7 1028.7 0.0
19/11:00pm 12.9 7.5 9.4 79 1.8 S 28 39 15 21 1028.8 1028.8 0.0
19/10:44pm 13.2 10.1 10.2 82 1.6 S 17 26 9 14 1028.5 1028.5 0.0
19/10:30pm 13.3 10.0 10.8 85 1.3 SE 19 26 10 14 1027.9 1027.9 0.0
19/10:00pm 14.3 10.9 11.1 81 1.7 SSW 20 28 11 15 1027.8 1027.8 0.0
19/09:30pm 14.4 10.4 10.6 78 2.0 S 22 30 12 16 1027.4 1027.4 0.0
19/09:00pm 14.6 11.2 10.6 77 2.1 SSW 19 28 10 15 1026.8 1026.8 0.0
19/08:30pm 14.5 12.3 10.9 79 1.9 SSW 13 20 7 11 1026.3 1026.3 0.0
19/08:00pm 14.4 11.5 11.0 80 1.8 S 17 26 9 14 1025.4 1025.4 0.0
19/07:30pm 14.9 10.4 11.5 80 1.8 SSW 26 32 14 17 1024.8 1024.8 0.0
19/07:00pm 15.0 11.6 11.4 79 1.9 SSW 20 30 11 16 1024.3 1024.3 0.0
19/06:30pm 15.2 11.4 11.2 77 2.1 SSW 22 32 12 17 1023.5 1023.5 0.0
19/06:00pm 15.4 10.5 11.2 76 2.2 SSW 28 41 15 22 1023.0 1023.0 0.0
19/05:30pm 15.7 11.1 11.1 74 2.5 SSW 26 41 14 22 1021.9 1021.9 0.0
19/05:00pm 15.9 9.8 11.7 76 2.3 SSW 35 54 19 29 1020.9 1020.9 0.0
19/04:48pm 16.0 11.4 12.2 78 2.1 SSW 28 46 15 25 1020.5 1020.5 0.0
19/04:30pm 15.9 12.1 12.5 80 1.9 SSW 24 35 13 19 1020.0 1020.0 0.0
19/04:00pm 17.4 13.1 13.1 76 2.4 SSW 28 37 15 20 1019.7 1019.7 0.0

Other Formats:

Comma delimited format used in spreadsheet applications
http://www.bom.gov.au/fwo/IDV60801/IDV60801.94870.axf

JavaScript Object Notation format (JSON) in row-major order
http://www.bom.gov.au/fwo/IDV60801/IDV60801.94870.json